Flight Track Log - Related Links

Times and Time Zones

All times are in EDT time to prevent confusion due to time zone crossing. See the AVA30 flight status page for this flight to view local times or setup timezone preferences in your user account.

Time Position Orientation Groundspeed Altitude Reporting Facility
EDT Latitude Longitude Course Direction KTS MPH feet Rate Location/Type
Tue 02:12:00 PM 24.5745 -79.9516 347° North  Level Estimated
Tue 02:13:00 PM 24.6893 -79.9831 346° North  Level Estimated
Tue 02:13:40 PM 23.1053 -78.8850 346° North 391 450 30,000  Level Miami Center
Tue 02:14:00 PM 24.8042 -80.0147 346° North  Level Estimated
Tue 02:14:52 PM 23.2278 -78.9547 332° Northwest 420 483 30,000  Level Miami Center
Tue 02:15:00 PM 24.9190 -80.0464 346° North  Level Estimated
Tue 02:15:52 PM 23.3544 -79.0067 339° North 395 455 30,000  Level Miami Center
Tue 02:16:00 PM 25.0338 -80.0781 346° North  Level Estimated
Tue 02:16:52 PM 23.4706 -79.0628 336° Northwest 426 490 30,000  Level Miami Center
Tue 02:17:00 PM 25.1486 -80.1099 346° North  Level Estimated
Tue 02:17:52 PM 23.5786 -79.1056 340° North 436 502 30,000  Level Miami Center
Tue 02:18:52 PM 23.6928 -79.1575 337° Northwest 431 496 30,000  Level Miami Center
Tue 02:19:52 PM 23.8028 -79.2072 338° Northwest 429 494 30,000  Level Miami Center
Tue 02:20:52 PM 23.9208 -79.2683 335° Northwest 436 502 30,000 -50 Level Miami Center
Tue 02:21:52 PM 24.0394 -79.3047 344° North 436 502 29,900  Descending Miami Center
Tue 02:22:52 PM 24.1558 -79.3433 343° North 431 496 30,000 -150 Climbing Miami Center
Tue 02:23:52 PM 24.2492 -79.3750 343° North 431 496 29,600 -800 Descending Miami Center
Tue 02:24:52 PM 24.3947 -79.4144 346° North 436 502 28,400 -1,000 Descending Miami Center
Tue 02:25:52 PM 24.4864 -79.4436 344° North 436 502 27,600 -1,000 Descending Miami Center
Tue 02:26:52 PM 24.6256 -79.4878 344° North 431 496 26,400 -1,500 Descending Miami Center
Tue 02:27:52 PM 24.7397 -79.5222 345° North 431 496 24,600 -2,000 Descending Miami Center
Tue 02:28:52 PM 24.8500 -79.5589 343° North 421 484 22,400 -2,100 Descending Miami Center
Tue 02:29:52 PM 24.9536 -79.5931 343° North 409 471 20,400 -2,450 Descending Miami Center
Tue 02:30:52 PM 25.0575 -79.6253 344° North 393 452 17,500 -2,750 Descending Miami Center
Tue 02:31:52 PM 25.1636 -79.6575 345° North 387 445 14,900 -2,400 Descending Miami Center
Tue 02:32:52 PM 25.2717 -79.6900 345° North 387 445 12,700 -1,870 Descending Miami Center
Tue 02:33:09 PM 25.2986 -79.7019 338° Northwest 376 433 12,500 -700 Descending Miami Center
Tue 02:33:52 PM 25.3650 -79.7197 346° North 374 430 12,000 -493 Descending Miami Center
Tue 02:34:22 PM 25.4042 -79.7506 325° Northwest 341 392 11,900 -900 Descending Miami Center
Tue 02:34:52 PM 25.4347 -79.7858 314° West 331 381 11,100 -2,400 Descending Miami Center
Tue 02:35:17 PM 25.4486 -79.8206 294° West 325 374 9,700 -2,200 Descending Miami Center
Tue 02:35:52 PM 25.4853 -79.8653 312° West 321 369 8,900 -689 Descending Miami Center
Tue 02:36:18 PM 25.5033 -79.9003 300° West 289 333 9,000 100 Climbing Miami Center
Tue 02:36:52 PM 25.5319 -79.9378 310° West 305 351 9,000  Level Miami Center
Tue 02:37:25 PM 25.5561 -79.9819 301° West 294 338 9,000  Level Miami Center
Tue 02:37:52 PM 25.5806 -80.0128 311° West 299 344 9,000  Level Miami Center
Tue 02:38:26 PM 25.6047 -80.0569 301° West 294 338 9,000  Level Miami Center
Tue 02:38:52 PM 25.6169 -80.0689 319° Northwest 294 338 9,000  Level Miami Center
Tue 02:39:21 PM 25.6492 -80.1228 304° West 293 337 9,000  Level Miami Center
Tue 02:39:52 PM 25.6711 -80.1603 303° West 294 338 9,000  Level Miami Center
Tue 02:40:22 PM 25.6744 -80.2042 275° West 267 307 9,000 -700 Level Miami Center
Tue 02:40:52 PM 25.6903 -80.2369 298° West 272 313 8,300 -1,701 Descending Miami Center
Tue 02:41:29 PM 25.6975 -80.2856 279° West 242 278 7,100 -1,800 Descending Miami Center
Tue 02:41:52 PM 25.7075 -80.3089 295° West 258 297 6,500 -1,082 Descending Miami Center
Tue 02:42:30 PM 25.7042 -80.3639 266° West 243 280 6,000 -500 Descending Miami Center
Tue 02:42:52 PM 25.7103 -80.3689 324° Northwest 245 282 6,000 -436 Level Miami Center
Tue 02:43:25 PM 25.7025 -80.4286 262° West 222 255 5,600 -1,213 Descending Miami Center
Tue 02:44:26 PM 25.6989 -80.4931 266° West 217 250 4,100 -931 Descending Miami Center
Tue 02:45:21 PM 25.7078 -80.5531 279° West 213 245 3,800 -516 Descending Miami Center
Tue 02:46:34 PM 25.7625 -80.5411 11° North 197 227 3,000 -403 Descending Miami Center
Tue 02:47:35 PM 25.7783 -80.4861 72° East 168 193 2,900 -492 Descending Miami Center
Tue 02:48:36 PM 25.7775 -80.4353 91° East 168 193 2,000 -750 Descending Miami Center
Tue 02:49:43 PM 25.7808 -80.3894 85° East 114 131 1,300 -645 Descending Miami Center
Tue 02:50:37 PM 25.7817 -80.3547 88° East 130 150 700 -600 Descending Miami Center
Tue 02:51:33 PM 25.7847 -80.3181 85° East 123 142 200 -536 Descending Miami Center
Tue 02:53:00 PM 25.7833 -80.2833 77° East  Level FlightAware Approximate

Login

Don't have an account? Register now (free) for customized features, flight alerts, and more!